createdAt,value
2022-11-24T00:00:34.338Z,23.42
2022-11-24T00:03:00.978Z,30.00
2022-11-24T00:05:27.428Z,25.48
2022-11-24T00:07:53.859Z,33.33
2022-11-24T00:10:20.247Z,31.15
2022-11-24T00:12:46.611Z,25.08
2022-11-24T00:15:12.985Z,23.92
2022-11-24T00:17:39.308Z,23.25
2022-11-24T00:20:06.257Z,31.13
2022-11-24T00:22:32.768Z,29.40
2022-11-24T00:24:59.146Z,24.35
2022-11-24T00:27:25.821Z,23.95
2022-11-24T00:29:52.320Z,24.00
2022-11-24T00:32:18.685Z,22.20
2022-11-24T00:34:45.005Z,18.65
2022-11-24T00:37:11.318Z,27.10
2022-11-24T00:39:37.722Z,18.98
2022-11-24T00:42:04.046Z,21.67
2022-11-24T00:44:30.597Z,28.48
2022-11-24T00:46:57.288Z,17.40
2022-11-24T00:49:23.787Z,22.25
2022-11-24T00:51:50.115Z,16.92
2022-11-24T00:54:16.440Z,15.18
2022-11-24T00:56:42.785Z,18.98
2022-11-24T00:59:09.211Z,23.45
2022-11-24T01:01:35.976Z,21.35
2022-11-24T01:04:02.411Z,29.48
2022-11-24T01:06:29.222Z,20.50
2022-11-24T01:08:56.851Z,29.80
2022-11-24T01:11:25.174Z,21.73
2022-11-24T01:13:53.039Z,14.13
2022-11-24T01:16:24.427Z,27.90
2022-11-24T01:18:50.799Z,27.60
2022-11-24T01:21:17.886Z,21.10
2022-11-24T01:23:44.426Z,26.33
2022-11-24T01:26:12.574Z,22.17
2022-11-24T01:28:44.861Z,24.90
2022-11-24T01:31:13.501Z,17.77
2022-11-24T01:33:39.940Z,18.17
2022-11-24T01:36:06.723Z,20.98
2022-11-24T01:38:33.131Z,21.38
2022-11-24T01:41:04.009Z,20.98
2022-11-24T01:43:30.636Z,18.70
2022-11-24T01:45:57.343Z,19.65
2022-11-24T01:48:31.622Z,22.98
2022-11-24T01:51:08.289Z,16.65
2022-11-24T01:53:35.343Z,23.90
2022-11-24T01:56:02.218Z,22.30
2022-11-24T01:58:31.625Z,19.58
2022-11-24T02:00:57.980Z,22.65
2022-11-24T02:03:27.014Z,19.58
2022-11-24T02:05:53.334Z,18.90
2022-11-24T02:08:25.590Z,21.75
2022-11-24T02:10:51.945Z,22.42
2022-11-24T02:13:18.569Z,20.27
2022-11-24T02:15:45.034Z,18.52
2022-11-24T02:18:11.542Z,17.23
2022-11-24T02:20:38.143Z,17.30
2022-11-24T02:23:19.702Z,16.73
2022-11-24T02:26:21.673Z,15.55
2022-11-24T02:28:50.014Z,14.98
2022-11-24T02:31:16.504Z,18.48
2022-11-24T02:33:42.975Z,17.63
2022-11-24T02:36:09.313Z,15.77
2022-11-24T02:38:36.276Z,24.45
2022-11-24T02:41:07.128Z,16.08
2022-11-24T02:43:36.646Z,13.52
2022-11-24T02:46:03.378Z,14.45
2022-11-24T02:48:29.877Z,21.05
2022-11-24T02:50:56.387Z,19.27
2022-11-24T02:53:22.834Z,18.58
2022-11-24T02:55:49.257Z,16.05
2022-11-24T02:58:16.047Z,16.33
2022-11-24T03:00:42.437Z,14.90
2022-11-24T03:03:08.843Z,17.90
2022-11-24T03:05:35.289Z,12.88
2022-11-24T03:08:01.738Z,13.75
2022-11-24T03:10:29.055Z,14.38
2022-11-24T03:12:55.733Z,15.60
2022-11-24T03:15:23.609Z,14.45
2022-11-24T03:17:50.269Z,14.93
2022-11-24T03:20:17.127Z,13.70
2022-11-24T03:22:43.786Z,15.85
2022-11-24T03:25:10.197Z,16.73
2022-11-24T03:27:36.747Z,13.38
2022-11-24T03:30:03.523Z,11.15
2022-11-24T03:32:29.990Z,12.95
2022-11-24T03:34:56.319Z,10.95
2022-11-24T03:37:22.690Z,12.15
2022-11-24T03:39:49.464Z,11.80
2022-11-24T03:42:16.131Z,9.88
2022-11-24T03:44:42.458Z,14.10
2022-11-24T03:47:10.334Z,7.70
2022-11-24T03:49:36.847Z,12.00
2022-11-24T03:52:07.829Z,12.18
2022-11-24T03:54:35.242Z,8.50
2022-11-24T03:57:01.944Z,9.80
2022-11-24T03:59:28.286Z,14.55
2022-11-24T04:01:54.871Z,14.30
2022-11-24T04:04:21.293Z,10.63
2022-11-24T04:06:47.622Z,11.48
2022-11-24T04:09:14.111Z,12.80
2022-11-24T04:11:59.134Z,19.02
2022-11-24T04:14:25.438Z,17.98
2022-11-24T04:16:51.722Z,16.10
2022-11-24T04:19:18.313Z,18.15
2022-11-24T04:21:44.641Z,16.40
2022-11-24T04:24:10.922Z,17.60
2022-11-24T04:26:37.584Z,11.32
2022-11-24T04:29:04.266Z,16.27
2022-11-24T04:31:30.712Z,19.13
2022-11-24T04:33:57.057Z,18.88
2022-11-24T04:36:23.371Z,16.98
2022-11-24T04:39:20.083Z,14.02
2022-11-24T04:41:37.977Z,16.42
2022-11-24T04:44:04.362Z,13.60
2022-11-24T04:46:31.312Z,20.58
2022-11-24T04:48:57.701Z,12.70
2022-11-24T04:51:24.001Z,21.45
2022-11-24T04:53:50.389Z,12.73
2022-11-24T04:56:16.815Z,15.63
2022-11-24T04:58:43.309Z,10.35
2022-11-24T05:01:09.754Z,13.00
2022-11-24T05:03:36.502Z,12.40
2022-11-24T05:06:02.868Z,12.30
2022-11-24T05:08:29.206Z,12.00
2022-11-24T05:10:55.560Z,12.35
2022-11-24T05:13:21.882Z,9.90
2022-11-24T05:15:48.318Z,8.63
2022-11-24T05:18:16.318Z,7.15
2022-11-24T05:20:44.622Z,5.72
2022-11-24T05:23:11.441Z,6.63
2022-11-24T05:25:37.854Z,4.97
2022-11-24T05:28:05.730Z,4.03
2022-11-24T05:30:32.144Z,6.85
2022-11-24T05:32:58.845Z,4.50
2022-11-24T05:35:25.467Z,3.38
2022-11-24T05:37:51.865Z,6.38
2022-11-24T05:40:18.434Z,3.38
2022-11-24T05:42:47.782Z,3.50
2022-11-24T05:45:16.498Z,2.90
2022-11-24T05:47:42.877Z,2.67
2022-11-24T05:50:10.218Z,2.22
2022-11-24T05:52:36.613Z,2.83
2022-11-24T05:55:03.601Z,6.25
2022-11-24T05:57:30.017Z,3.85
2022-11-24T05:59:56.610Z,1.13
2022-11-24T06:02:23.152Z,1.50
2022-11-24T06:04:49.794Z,3.28
2022-11-24T06:07:16.158Z,3.53
2022-11-24T06:09:43.191Z,3.67
2022-11-24T06:12:10.713Z,2.10
2022-11-24T06:14:37.442Z,2.22
2022-11-24T06:17:04.207Z,2.22
2022-11-24T06:19:30.866Z,3.60
2022-11-24T06:21:57.575Z,4.45
2022-11-24T06:24:23.961Z,5.35
2022-11-24T06:26:50.498Z,3.88
2022-11-24T06:29:17.032Z,3.20
2022-11-24T06:31:43.469Z,3.08
2022-11-24T06:34:11.628Z,4.43
2022-11-24T06:36:38.293Z,3.17
2022-11-24T06:39:06.429Z,6.20
2022-11-24T06:41:32.733Z,7.88
2022-11-24T06:43:59.135Z,7.43
2022-11-24T06:46:25.563Z,3.25
2022-11-24T06:48:52.817Z,5.55
2022-11-24T06:51:19.379Z,6.50
2022-11-24T06:53:45.895Z,6.70
2022-11-24T06:56:16.710Z,6.47
2022-11-24T07:01:37.491Z,5.47
2022-11-24T07:04:04.384Z,6.03
2022-11-24T07:06:31.200Z,6.85
2022-11-24T07:08:57.856Z,7.05
2022-11-24T07:11:24.957Z,6.90
2022-11-24T07:13:55.124Z,5.85
2022-11-24T07:16:26.554Z,6.88
2022-11-24T07:18:53.529Z,10.35
2022-11-24T07:21:20.895Z,7.45
2022-11-24T07:23:51.062Z,9.23
2022-11-24T07:26:17.869Z,12.35
2022-11-24T07:28:44.708Z,8.15
2022-11-24T07:31:13.293Z,7.15
2022-11-24T07:33:40.069Z,10.98
2022-11-24T07:36:16.566Z,7.95
2022-11-24T07:38:43.451Z,9.27
2022-11-24T07:41:10.814Z,9.02
2022-11-24T07:43:37.732Z,11.20
2022-11-24T07:46:04.991Z,8.43
2022-11-24T07:48:32.049Z,10.60
2022-11-24T07:51:02.153Z,11.20
2022-11-24T07:53:28.754Z,13.27
2022-11-24T07:55:56.303Z,8.43
2022-11-24T07:58:23.008Z,16.15
2022-11-24T08:00:49.677Z,11.52
2022-11-24T08:03:16.294Z,9.45
2022-11-24T08:06:07.759Z,10.13
2022-11-24T08:08:33.387Z,11.25
2022-11-24T08:11:07.066Z,11.45
2022-11-24T08:13:33.668Z,8.88
2022-11-24T08:16:03.408Z,17.73
2022-11-24T08:18:29.718Z,12.25
2022-11-24T08:20:57.564Z,14.93
2022-11-24T08:23:24.016Z,11.85
2022-11-24T08:25:54.236Z,9.93
2022-11-24T08:28:23.593Z,14.13
2022-11-24T08:30:49.955Z,13.98
2022-11-24T08:33:16.422Z,9.45
2022-11-24T08:35:42.840Z,9.48
2022-11-24T08:38:09.357Z,16.25
2022-11-24T08:40:35.736Z,14.90
2022-11-24T08:43:02.231Z,14.27
2022-11-24T08:45:30.639Z,16.63
2022-11-24T08:47:57.723Z,13.60
2022-11-24T08:50:24.653Z,12.45
2022-11-24T08:52:51.583Z,14.35
2022-11-24T08:55:18.056Z,16.52
2022-11-24T08:57:44.452Z,12.75
2022-11-24T09:00:11.258Z,12.88
2022-11-24T09:02:37.838Z,12.35
2022-11-24T09:05:07.258Z,12.55
2022-11-24T09:07:44.087Z,14.77
2022-11-24T09:10:10.545Z,7.53
2022-11-24T09:12:36.903Z,13.80
2022-11-24T09:15:03.270Z,17.10
2022-11-24T09:17:29.656Z,14.98
2022-11-24T09:19:56.042Z,16.25
2022-11-24T09:22:22.370Z,18.17
2022-11-24T09:24:48.720Z,15.40
2022-11-24T09:27:15.110Z,10.65
2022-11-24T09:29:41.549Z,14.80
2022-11-24T09:32:07.976Z,15.32
2022-11-24T09:34:34.373Z,16.05
2022-11-24T09:37:01.317Z,11.82
2022-11-24T09:39:27.801Z,12.85
2022-11-24T09:42:03.370Z,12.10
2022-11-24T09:44:41.786Z,10.43
2022-11-24T09:47:31.692Z,10.32
2022-11-24T09:49:59.845Z,13.80
2022-11-24T09:52:32.217Z,14.07
2022-11-24T09:55:01.079Z,10.40
2022-11-24T09:57:32.724Z,20.73
2022-11-24T10:00:07.621Z,12.98
2022-11-24T10:02:38.091Z,13.05
2022-11-24T10:05:05.118Z,14.82
2022-11-24T10:07:37.963Z,15.45
2022-11-24T10:10:18.590Z,15.48
2022-11-24T10:12:55.355Z,17.00
2022-11-24T10:15:34.010Z,15.27
2022-11-24T10:18:09.289Z,17.45
2022-11-24T10:20:38.332Z,17.73
2022-11-24T10:23:23.142Z,11.98
2022-11-24T10:25:59.622Z,8.48
2022-11-24T10:28:38.162Z,19.23
2022-11-24T10:31:33.931Z,17.10
2022-11-24T10:34:14.838Z,10.18
2022-11-24T10:36:49.377Z,16.15
2022-11-24T10:39:36.611Z,13.75
2022-11-24T10:42:20.368Z,16.88
2022-11-24T10:44:46.695Z,13.77
2022-11-24T10:47:19.992Z,10.77
2022-11-24T10:50:05.350Z,14.93
2022-11-24T10:52:36.694Z,18.55
2022-11-24T10:55:07.154Z,12.82
2022-11-24T10:57:35.071Z,14.50
2022-11-24T11:00:03.451Z,11.75
2022-11-24T11:02:35.197Z,11.55
2022-11-24T11:05:20.128Z,12.52
2022-11-24T11:07:46.983Z,17.08
2022-11-24T11:10:18.686Z,16.33
2022-11-24T11:12:45.658Z,13.73
2022-11-24T11:15:25.328Z,13.23
2022-11-24T11:17:54.419Z,14.80
2022-11-24T11:20:28.686Z,16.08
2022-11-24T11:22:56.365Z,13.00
2022-11-24T11:25:24.594Z,14.52
2022-11-24T11:27:51.186Z,17.60
2022-11-24T11:36:10.961Z,16.15
2022-11-24T11:38:38.243Z,12.15
2022-11-24T11:41:05.767Z,20.50
2022-11-24T11:43:34.553Z,21.48
2022-11-24T11:46:09.966Z,16.20
2022-11-24T11:48:43.066Z,21.02
2022-11-24T11:51:25.640Z,18.60
2022-11-24T11:54:04.979Z,16.20
2022-11-24T11:56:34.836Z,22.15
2022-11-24T11:59:20.213Z,15.10
2022-11-24T12:01:57.391Z,14.35
2022-11-24T12:04:46.693Z,27.73
2022-11-24T12:07:25.044Z,10.57
2022-11-24T12:09:51.540Z,12.13
2022-11-24T12:12:17.879Z,17.60
2022-11-24T12:14:52.846Z,20.00
2022-11-24T12:17:19.158Z,14.82
2022-11-24T12:19:56.401Z,14.88
2022-11-24T12:22:28.368Z,15.27
2022-11-24T12:24:57.894Z,20.05
2022-11-24T12:27:49.291Z,15.68
2022-11-24T12:32:45.023Z,16.67
2022-11-24T12:35:30.207Z,23.23
2022-11-24T12:38:11.901Z,12.27
2022-11-24T12:40:50.471Z,19.13
2022-11-24T12:43:23.028Z,21.20
2022-11-24T12:45:52.177Z,16.98
2022-11-24T12:48:21.674Z,18.52
2022-11-24T12:50:48.743Z,17.98
2022-11-24T12:53:17.819Z,16.55
2022-11-24T12:55:44.606Z,22.70
2022-11-24T12:58:17.073Z,18.33
2022-11-24T13:00:43.409Z,15.02
2022-11-24T13:03:12.791Z,27.13
2022-11-24T13:05:46.356Z,16.08
2022-11-24T13:08:16.099Z,15.45
2022-11-24T13:10:58.218Z,16.85
2022-11-24T13:13:29.279Z,21.13
2022-11-24T13:18:58.699Z,18.70
2022-11-24T13:21:31.070Z,17.42
2022-11-24T13:24:01.862Z,13.00
2022-11-24T13:26:43.513Z,14.05
2022-11-24T13:29:42.188Z,13.55
2022-11-24T13:32:08.533Z,13.57
2022-11-24T13:34:41.235Z,21.05
2022-11-24T13:37:28.881Z,15.32
2022-11-24T13:40:22.429Z,18.52
2022-11-24T13:42:54.700Z,19.13
2022-11-24T13:45:39.241Z,14.38
2022-11-24T13:48:21.406Z,17.48
2022-11-24T13:50:51.537Z,16.05
2022-11-24T13:53:37.033Z,15.65
2022-11-24T13:56:12.474Z,16.20
2022-11-24T13:58:43.463Z,22.33
2022-11-24T14:01:16.269Z,22.52
2022-11-24T14:06:40.262Z,20.75
2022-11-24T14:09:32.810Z,21.35
2022-11-24T14:12:01.448Z,15.55
2022-11-24T14:14:27.868Z,19.95
2022-11-24T14:17:12.538Z,20.90
2022-11-24T14:19:39.291Z,16.92
2022-11-24T14:22:05.818Z,19.90
2022-11-24T14:24:36.785Z,22.90
2022-11-24T14:27:13.648Z,20.13
2022-11-24T14:29:54.107Z,18.00
2022-11-24T14:32:21.832Z,17.90
2022-11-24T14:34:48.284Z,22.45
2022-11-24T14:37:14.661Z,19.05
2022-11-24T14:39:42.202Z,24.52
2022-11-24T14:42:25.046Z,14.38
2022-11-24T14:45:03.605Z,16.90
2022-11-24T14:47:34.399Z,17.73
2022-11-24T14:50:08.985Z,22.15
2022-11-24T14:52:35.756Z,18.38
2022-11-24T14:55:21.274Z,20.40
2022-11-24T14:57:48.162Z,21.60
2022-11-24T15:00:19.300Z,15.20
2022-11-24T15:05:13.907Z,18.98
2022-11-24T15:07:47.000Z,16.65
2022-11-24T15:10:19.154Z,16.35
2022-11-24T15:12:51.150Z,14.10
2022-11-24T15:15:22.359Z,21.83
2022-11-24T15:17:53.685Z,15.73
2022-11-24T15:20:26.723Z,19.95
2022-11-24T15:23:12.256Z,15.65
2022-11-24T15:25:39.187Z,22.63
2022-11-24T15:28:05.639Z,17.50
2022-11-24T15:30:33.829Z,14.38
2022-11-24T15:33:00.229Z,17.60
2022-11-24T15:35:29.277Z,22.40
2022-11-24T15:37:55.692Z,16.83
2022-11-24T15:40:22.218Z,24.38
2022-11-24T15:42:52.826Z,20.63
2022-11-24T15:45:20.168Z,16.38
2022-11-24T15:47:46.583Z,15.98
2022-11-24T15:50:13.700Z,20.75
2022-11-24T15:52:40.333Z,17.52
2022-11-24T15:55:07.060Z,16.90
2022-11-24T15:57:34.203Z,16.92
2022-11-24T16:00:00.667Z,17.92
2022-11-24T16:02:27.260Z,20.15
2022-11-24T16:04:53.699Z,16.77
2022-11-24T16:07:20.057Z,18.48
2022-11-24T16:09:46.674Z,17.55
2022-11-24T16:12:13.104Z,15.57
2022-11-24T16:14:39.736Z,16.38
2022-11-24T16:17:06.179Z,14.98
2022-11-24T16:19:36.131Z,19.40
2022-11-24T16:22:06.332Z,20.65
2022-11-24T16:24:33.030Z,16.75
2022-11-24T16:26:59.785Z,18.65
2022-11-24T16:29:26.225Z,20.45
2022-11-24T16:31:52.665Z,17.63
2022-11-24T16:34:19.089Z,17.77
2022-11-24T16:36:45.477Z,13.70
2022-11-24T16:39:13.110Z,17.30
2022-11-24T16:41:39.643Z,23.50
2022-11-24T16:44:06.449Z,20.63
2022-11-24T16:46:32.909Z,13.57
2022-11-24T16:49:03.545Z,17.75
2022-11-24T16:51:35.105Z,16.52
2022-11-24T16:54:02.335Z,17.95
2022-11-24T16:56:29.122Z,13.43
2022-11-24T16:58:56.800Z,19.35
2022-11-24T17:01:23.542Z,16.63
2022-11-24T17:03:50.079Z,12.38
2022-11-24T17:06:16.783Z,13.75
2022-11-24T17:08:43.919Z,17.85
2022-11-24T17:11:10.375Z,17.13
2022-11-24T17:13:37.189Z,16.67
2022-11-24T17:16:04.561Z,18.10
2022-11-24T17:18:31.129Z,24.08
2022-11-24T17:21:07.838Z,16.15
2022-11-24T17:23:36.000Z,14.10
2022-11-24T17:26:02.930Z,13.93
2022-11-24T17:28:29.482Z,11.38
2022-11-24T17:30:55.892Z,15.10
2022-11-24T17:33:22.281Z,17.80
2022-11-24T17:35:49.183Z,15.88
2022-11-24T17:38:15.510Z,18.20
2022-11-24T17:40:46.148Z,15.30
2022-11-24T17:43:12.618Z,19.95
2022-11-24T17:45:39.051Z,11.23
2022-11-24T17:48:05.595Z,12.50
2022-11-24T17:50:31.896Z,16.40
2022-11-24T17:52:58.187Z,22.80
2022-11-24T17:55:24.499Z,14.20
2022-11-24T17:57:50.827Z,16.45
2022-11-24T18:00:17.434Z,14.32
2022-11-24T18:02:43.811Z,19.73
2022-11-24T18:05:10.228Z,16.33
2022-11-24T18:07:39.105Z,15.18
2022-11-24T18:10:05.892Z,16.67
2022-11-24T18:12:32.285Z,12.88
2022-11-24T18:14:58.955Z,15.95
2022-11-24T18:17:25.425Z,23.90
2022-11-24T18:19:51.770Z,15.43
2022-11-24T18:22:21.040Z,15.10
2022-11-24T18:24:53.698Z,19.42
2022-11-24T18:27:20.053Z,21.23
2022-11-24T18:29:46.526Z,20.63
2022-11-24T18:32:12.921Z,27.88
2022-11-24T18:34:39.318Z,15.35
2022-11-24T18:37:05.823Z,17.25
2022-11-24T18:39:32.134Z,17.20
2022-11-24T18:41:58.473Z,15.43
2022-11-24T18:44:24.834Z,18.90
2022-11-24T18:46:51.135Z,14.57
2022-11-24T18:49:17.537Z,18.98
2022-11-24T18:51:44.005Z,16.35
2022-11-24T18:54:10.346Z,12.25
2022-11-24T18:56:36.674Z,13.57
2022-11-24T18:59:03.076Z,17.73
2022-11-24T19:01:29.575Z,19.33
2022-11-24T19:03:57.265Z,16.58
2022-11-24T19:06:31.852Z,16.08
2022-11-24T19:08:58.988Z,18.13
2022-11-24T19:11:28.107Z,18.70
2022-11-24T19:13:54.922Z,17.08
2022-11-24T19:16:21.649Z,14.00
2022-11-24T19:18:54.134Z,14.25
2022-11-24T19:21:21.132Z,18.73
2022-11-24T19:23:47.416Z,16.52
2022-11-24T19:26:15.222Z,16.35
2022-11-24T19:28:41.864Z,10.93
2022-11-24T19:31:09.022Z,16.40
2022-11-24T19:33:35.362Z,16.35
2022-11-24T19:36:03.847Z,18.10
2022-11-24T19:38:30.764Z,12.05
2022-11-24T19:41:01.147Z,11.05
2022-11-24T19:43:27.594Z,10.97
2022-11-24T19:45:54.028Z,11.57
2022-11-24T19:48:20.495Z,7.05
2022-11-24T19:50:46.844Z,11.15
2022-11-24T19:53:13.128Z,14.23
2022-11-24T19:55:39.499Z,14.30
2022-11-24T19:58:05.921Z,14.25
2022-11-24T20:00:32.468Z,11.45
2022-11-24T20:02:59.014Z,13.13
2022-11-24T20:05:25.419Z,11.88
2022-11-24T20:07:52.159Z,14.27
2022-11-24T20:10:18.747Z,20.55
2022-11-24T20:12:45.089Z,12.85
2022-11-24T20:15:11.584Z,11.63
2022-11-24T20:17:38.007Z,19.20
2022-11-24T20:20:04.770Z,8.98
2022-11-24T20:22:32.639Z,12.85
2022-11-24T20:25:01.882Z,18.73
2022-11-24T20:27:28.290Z,9.63
2022-11-24T20:29:54.689Z,15.93
2022-11-24T20:32:21.137Z,14.52
2022-11-24T20:34:47.654Z,15.02
2022-11-24T20:37:14.188Z,15.23
2022-11-24T20:39:40.564Z,14.15
2022-11-24T20:42:07.315Z,11.18
2022-11-24T20:44:33.789Z,10.55
2022-11-24T20:47:01.254Z,14.50
2022-11-24T20:49:27.866Z,10.75
2022-11-24T20:51:54.966Z,16.25
2022-11-24T20:54:21.486Z,12.10
2022-11-24T20:56:47.804Z,14.25
2022-11-24T20:59:15.760Z,16.92
2022-11-24T21:01:43.678Z,13.60
2022-11-24T21:04:11.412Z,13.70
2022-11-24T21:06:38.140Z,10.20
2022-11-24T21:09:05.068Z,9.52
2022-11-24T21:11:31.895Z,14.88
2022-11-24T21:13:58.942Z,9.75
2022-11-24T21:16:28.255Z,16.27
2022-11-24T21:18:58.299Z,11.93
2022-11-24T21:21:25.756Z,13.98
2022-11-24T21:23:52.212Z,13.90
2022-11-24T21:26:18.845Z,11.85
2022-11-24T21:28:45.813Z,14.00
2022-11-24T21:31:13.676Z,11.30
2022-11-24T21:33:41.321Z,16.38
2022-11-24T21:36:08.247Z,13.70
2022-11-24T21:38:34.852Z,10.50
2022-11-24T21:41:02.006Z,13.77
2022-11-24T21:43:29.644Z,13.38
2022-11-24T21:46:10.496Z,17.00
2022-11-24T21:48:38.616Z,9.25
2022-11-24T21:51:06.506Z,12.43
2022-11-24T21:53:34.489Z,15.13
2022-11-24T21:56:02.049Z,11.55
2022-11-24T21:58:29.801Z,10.23
2022-11-24T22:01:01.313Z,21.67
2022-11-24T22:03:27.829Z,11.68
2022-11-24T22:05:55.115Z,10.10
2022-11-24T22:08:21.714Z,17.90
2022-11-24T22:10:48.233Z,13.13
2022-11-24T22:13:15.171Z,15.57
2022-11-24T22:15:41.505Z,19.10
2022-11-24T22:18:07.925Z,15.10
2022-11-24T22:20:34.397Z,15.75
2022-11-24T22:23:01.066Z,17.98
2022-11-24T22:25:27.355Z,13.48
2022-11-24T22:27:53.657Z,13.88
2022-11-24T22:30:20.065Z,9.68
2022-11-24T22:32:46.611Z,26.52
2022-11-24T22:35:13.015Z,15.30
2022-11-24T22:37:39.364Z,16.23
2022-11-24T22:40:06.282Z,17.15
2022-11-24T22:42:32.567Z,13.15
2022-11-24T22:44:58.909Z,12.50
2022-11-24T22:47:25.201Z,13.05
2022-11-24T22:49:51.657Z,17.25
2022-11-24T22:52:18.056Z,15.20
2022-11-24T22:54:44.426Z,19.17
2022-11-24T22:57:10.927Z,17.90
2022-11-24T22:59:37.380Z,16.38
2022-11-24T23:02:03.644Z,12.82
2022-11-24T23:04:30.128Z,13.80
2022-11-24T23:06:56.630Z,14.63
2022-11-24T23:09:23.077Z,15.57
2022-11-24T23:11:49.545Z,16.42
2022-11-24T23:14:16.256Z,16.38
2022-11-24T23:16:42.869Z,10.02
2022-11-24T23:19:09.682Z,13.13
2022-11-24T23:21:38.477Z,13.52
2022-11-24T23:24:05.413Z,15.55
2022-11-24T23:26:32.986Z,18.77
2022-11-24T23:28:59.723Z,12.32
2022-11-24T23:31:29.935Z,19.05
2022-11-24T23:34:00.048Z,13.67
2022-11-24T23:36:26.815Z,12.43
2022-11-24T23:38:53.219Z,12.57
2022-11-24T23:41:20.912Z,16.23
2022-11-24T23:43:47.449Z,18.33
2022-11-24T23:46:21.744Z,13.88
2022-11-24T23:48:50.565Z,21.02
2022-11-24T23:51:17.003Z,18.10
2022-11-24T23:53:44.107Z,25.88
2022-11-24T23:56:11.917Z,18.23
2022-11-24T23:58:38.284Z,17.38
